Observations for DINARD PLEURTUIT, France (LFRD)

LFRD 200730Z AUTO 00000KT 8000 NSC 08/08 Q1034 TEMPO 0400 FG VV///  
LFRD 200700Z AUTO 20002KT 4100 BR NSC 06/06 Q1034 TEMPO VV/// BECMG 9999 NSW
LFRD 200630Z AUTO 19003KT 1800 0350 R35L/0450D BCFG NSC 07/06 Q1034 TEMPO 0400 FG VV/// 
LFRD 200600Z AUTO 18004KT 3300 BR NSC 07/06 Q1033 TEMPO BKN003  
LFRD 200530Z AUTO 22003KT 0550 0500 R35L/0650D FG NSC 06/05 Q1033 TEMPO 3000 BR BKN003  
LFRD 200500Z AUTO 19004KT 0800 0650 R35L/0900U FG NSC 06/05 Q1032 TEMPO 3000 BR BKN003  
LFRD 200430Z AUTO 19004KT 6000 R35L/1100U NSC 07/07 Q1032 TEMPO 3000 BR VV///   
LFRD 200400Z AUTO 19002KT 9999 SCT014 08/07 Q1033 TEMPO 3000 BR VV///   
LFRD 200330Z AUTO 18001KT 5000 R35L/1200U BR FEW015 07/06 Q1033 TEMPO 0400 FG VV/// 
LFRD 200300Z AUTO 18002KT 9999 FEW041 08/07 Q1032 TEMPO 0400 FG VV///   
LFRD 200230Z AUTO 19003KT 9999 OVC041 08/07 Q1032 TEMPO 0400 FG VV///   
LFRD 200200Z AUTO 19002KT 9999 FEW021 OVC041 08/07 Q1033 TEMPO 0400 FG VV///
LFRD 200130Z AUTO 23002KT 9999 SCT022 OVC041 08/07 Q1033 TEMPO 0400 FG VV///
LFRD 200100Z AUTO 21003KT 9999 FEW023 OVC040 09/08 Q1033 TEMPO 0400 FG VV///
LFRD 200030Z AUTO 24002KT 9999 OVC039 09/08 Q1033 TEMPO 0400 FG VV///   
LFRD 200000Z AUTO 29003KT 9999 FEW029 OVC040 09/08 Q1033 TEMPO 0400 FG VV///
LFRD 192330Z AUTO 20003KT 9999 FEW028 OVC037 09/08 Q1033 TEMPO 3000 BR BKN003   
LFRD 192300Z AUTO 23003KT 9999 OVC033 09/08 Q1033 TEMPO 3000 BR BKN003  
LFRD 192230Z AUTO 20003KT 9999 OVC035 09/08 Q1033 TEMPO 3000 BR BKN003  
LFRD 192200Z AUTO 29002KT 9999 BKN028 OVC034 09/07 Q1033 TEMPO 3000 BR BKN003   
LFRD 192130Z AUTO 30002KT 9999 FEW028 BKN033 OVC042 09/07 Q1033 NOSIG   
LFRD 192100Z AUTO 32004KT 9999 FEW030 OVC037 09/07 Q1032 NOSIG  
LFRD 192030Z AUTO 31003KT 9999 FEW028 OVC040 09/07 Q1032 NOSIG  
LFRD 192000Z AUTO 27002KT 9999 OVC040 09/07 Q1032 NOSIG 
LFRD 191930Z AUTO 09002KT 9999 OVC038 09/07 Q1031 NOSIG 
LFRD 191900Z AUTO 07002KT 9999 OVC034 10/06 Q1031 NOSIG 
LFRD 191830Z AUTO 02002KT 9999 OVC029 10/06 Q1031 NOSIG 
LFRD 191800Z AUTO 02003KT 9999 BKN028 BKN036 OVC050 10/06 Q1031 NOSIG   
LFRD 191730Z AUTO 36003KT 9999 OVC028 10/06 Q1030 NOSIG 
LFRD 191700Z AUTO 02005KT 340V050 9999 OVC031 10/06 Q1030 NOSIG 
LFRD 191630Z AUTO VRB02KT 9999 FEW035 OVC042 11/06 Q1030 NOSIG  
LFRD 191600Z AUTO 01004KT 330V040 9999 OVC037 11/07 Q1030 NOSIG 
LFRD 191530Z AUTO 36006KT 9999 OVC037 11/06 Q1030 NOSIG 
LFRD 191500Z AUTO 36006KT 330V040 9999 SCT024 OVC040 12/07 Q1030 NOSIG  
LFRD 191430Z AUTO 35004KT 300V020 9999 BKN023 BKN034 OVC041 12/07 Q1030 TEMPO 4000 SHRA BKN014  
LFRD 191400Z AUTO 35005KT 320V020 9999 BKN026 OVC037 12/07 Q1030 TEMPO 4000 SHRA BKN014 
LFRD 191330Z AUTO VRB02KT 9999 FEW025 OVC040 13/06 Q1030 TEMPO 4000 SHRA BKN014 
LFRD 191300Z AUTO VRB03KT 9999 BKN023 OVC040 12/06 Q1030 TEMPO 4000 SHRA BKN014 
LFRD 191230Z AUTO 31004KT 250V030 9999 OVC039 11/06 Q1030 TEMPO 4000 SHRA BKN014
LFRD 191200Z AUTO 28004KT 220V320 9999 SCT024 OVC037 11/06 Q1030 TEMPO 4000 SHRA BKN014 
LFRD 191130Z AUTO 35004KT 310V020 9999 BKN023 BKN029 OVC040 11/06 Q1030 TEMPO 4000 SHRA BKN014  
LFRD 191100Z AUTO VRB03KT 9999 SCT015 BKN030 OVC044 11/06 Q1030 TEMPO 4000 SHRA BKN012  
LFRD 191030Z AUTO VRB03KT 9999 SCT017 BKN033 OVC041 10/07 Q1029 TEMPO 4000 SHRA BKN012  
LFRD 191000Z AUTO VRB03KT 9999 FEW008 OVC043 10/06 Q1029 TEMPO 4000 SHRA BKN012 
LFRD 190930Z AUTO 19003KT 140V250 9999 FEW025 BKN041 09/07 Q1029 NOSIG  
LFRD 190900Z AUTO 20003KT 9999 FEW005 SCT033 OVC041 08/07 Q1029 NOSIG   
LFRD 190830Z AUTO VRB02KT 9999 FEW004 BKN025 OVC033 08/07 Q1029 TEMPO 4000 RADZ BKN003  
LFRD 190800Z AUTO VRB02KT 4100 -RADZ BR FEW006 BKN018 OVC024 08/07 Q1029 TEMPO BKN003 BECMG 9999 NSW
LFRD 190730Z AUTO VRB02KT 9000 BKN005 BKN019 OVC028 07/07 Q1028 TEMPO 4000 RADZ 
LFRD 190700Z AUTO 24003KT 170V260 5000 -RADZ BR FEW007 BKN019 OVC026 07/07 Q1028 TEMPO RADZ BKN003